createdAt,value
2017-11-26T00:01:58.107Z,98098.72
2017-11-26T00:04:26.395Z,98099.03
2017-11-26T00:06:54.701Z,98097.17
2017-11-26T00:09:24.086Z,98105.77
2017-11-26T00:11:52.385Z,98101.04
2017-11-26T00:14:20.656Z,98102.06
2017-11-26T00:16:48.947Z,98109.21
2017-11-26T00:19:17.230Z,98105.36
2017-11-26T00:21:45.535Z,98109.84
2017-11-26T00:24:13.823Z,98106.22
2017-11-26T00:26:42.116Z,98107.83
2017-11-26T00:29:10.399Z,98106.50
2017-11-26T00:31:39.331Z,98106.83
2017-11-26T00:34:07.613Z,98108.67
2017-11-26T00:36:35.892Z,98106.39
2017-11-26T00:39:04.174Z,98111.25
2017-11-26T00:41:32.440Z,98114.11
2017-11-26T00:44:00.728Z,98112.48
2017-11-26T00:46:29.017Z,98113.52
2017-11-26T00:48:57.298Z,98112.05
2017-11-26T00:51:25.586Z,98119.25
2017-11-26T00:53:53.865Z,98114.42
2017-11-26T00:56:22.154Z,98115.88
2017-11-26T00:58:51.226Z,98115.47
2017-11-26T01:01:20.284Z,98105.47
2017-11-26T01:03:48.570Z,98110.73
2017-11-26T01:06:16.868Z,98118.16
2017-11-26T01:08:45.144Z,98119.67
2017-11-26T01:11:13.649Z,98115.53
2017-11-26T01:13:42.700Z,98118.83
2017-11-26T01:16:10.988Z,98122.80
2017-11-26T01:18:39.275Z,98120.52
2017-11-26T01:21:07.561Z,98128.13
2017-11-26T01:23:35.850Z,98125.93
2017-11-26T01:26:04.906Z,98129.47
2017-11-26T01:28:33.214Z,98134.73
2017-11-26T01:31:01.504Z,98139.45
2017-11-26T01:33:29.780Z,98139.95
2017-11-26T01:35:58.070Z,98142.31
2017-11-26T01:38:26.358Z,98145.41
2017-11-26T01:40:54.639Z,98145.85
2017-11-26T01:43:22.923Z,98147.23
2017-11-26T01:45:51.215Z,98149.01
2017-11-26T01:48:19.506Z,98154.23
2017-11-26T01:50:47.803Z,98150.00
2017-11-26T01:53:16.086Z,98156.31
2017-11-26T01:55:45.139Z,98161.20
2017-11-26T01:58:13.427Z,98164.62
2017-11-26T02:00:41.705Z,98159.56
2017-11-26T02:03:10.017Z,98161.06
2017-11-26T02:05:38.319Z,98168.17
2017-11-26T02:08:06.605Z,98165.45
2017-11-26T02:10:34.899Z,98171.16
2017-11-26T02:13:03.182Z,98172.13
2017-11-26T02:15:31.474Z,98167.33
2017-11-26T02:18:00.669Z,98166.03
2017-11-26T02:20:29.735Z,98170.53
2017-11-26T02:22:58.020Z,98169.43
2017-11-26T02:25:26.293Z,98165.89
2017-11-26T02:27:54.581Z,98167.62
2017-11-26T02:30:22.871Z,98160.62
2017-11-26T02:33:08.814Z,98146.78
2017-11-26T02:35:39.595Z,98141.39
2017-11-26T02:38:07.882Z,98148.23
2017-11-26T02:40:36.185Z,98158.77
2017-11-26T02:43:04.474Z,98169.85
2017-11-26T02:45:32.755Z,98168.17
2017-11-26T02:48:01.046Z,98168.25
2017-11-26T02:50:29.334Z,98170.55
2017-11-26T02:52:57.823Z,98164.17
2017-11-26T02:55:26.098Z,98165.19
2017-11-26T02:57:54.378Z,98162.80
2017-11-26T03:00:22.687Z,98165.00
2017-11-26T03:02:50.953Z,98167.94
2017-11-26T03:05:19.988Z,98168.77
2017-11-26T03:07:48.249Z,98172.64
2017-11-26T03:10:16.515Z,98179.15
2017-11-26T03:12:44.806Z,98175.09
2017-11-26T03:15:13.084Z,98174.09
2017-11-26T03:17:41.359Z,98175.11
2017-11-26T03:20:09.625Z,98176.92
2017-11-26T03:22:37.909Z,98176.36
2017-11-26T03:25:06.188Z,98184.64
2017-11-26T03:27:34.450Z,98185.71
2017-11-26T03:30:03.646Z,98182.16
2017-11-26T03:32:31.927Z,98179.66
2017-11-26T03:35:00.207Z,98177.34
2017-11-26T03:37:28.506Z,98186.77
2017-11-26T03:39:56.779Z,98183.05
2017-11-26T03:42:25.062Z,98183.12
2017-11-26T03:44:53.360Z,98189.52
2017-11-26T03:47:22.130Z,98189.05
2017-11-26T03:49:50.429Z,98183.79
2017-11-26T03:52:18.725Z,98190.20
2017-11-26T03:54:47.016Z,98190.46
2017-11-26T03:57:16.509Z,98184.63
2017-11-26T03:59:45.583Z,98188.33
2017-11-26T04:02:13.923Z,98189.30
2017-11-26T04:04:42.199Z,98194.12
2017-11-26T04:07:10.473Z,98194.90
2017-11-26T04:09:39.569Z,98194.01
2017-11-26T04:12:07.845Z,98197.08
2017-11-26T04:14:36.130Z,98182.88
2017-11-26T04:17:04.410Z,98197.67
2017-11-26T04:19:32.686Z,98199.75
2017-11-26T04:22:00.966Z,98204.70
2017-11-26T04:24:29.253Z,98201.33
2017-11-26T04:26:57.540Z,98201.67
2017-11-26T04:29:25.822Z,98194.14
2017-11-26T04:31:54.098Z,98192.91
2017-11-26T04:34:22.374Z,98204.27
2017-11-26T04:36:50.659Z,98204.14
2017-11-26T04:39:18.947Z,98206.22
2017-11-26T04:41:48.006Z,98201.48
2017-11-26T04:44:16.296Z,98204.64
2017-11-26T04:46:45.907Z,98201.83
2017-11-26T04:49:14.202Z,98204.33
2017-11-26T04:51:42.498Z,98201.13
2017-11-26T04:54:10.776Z,98196.34
2017-11-26T04:56:39.064Z,98200.93
2017-11-26T04:59:07.339Z,98197.27
2017-11-26T05:01:35.616Z,98200.69
2017-11-26T05:04:03.958Z,98193.16
2017-11-26T05:06:32.435Z,98193.84
2017-11-26T05:09:00.715Z,98191.98
2017-11-26T05:11:29.765Z,98195.88
2017-11-26T05:13:58.043Z,98195.37
2017-11-26T05:16:26.331Z,98192.89
2017-11-26T05:18:54.630Z,98202.00
2017-11-26T05:21:23.825Z,98199.80
2017-11-26T05:23:52.135Z,98200.50
2017-11-26T05:26:20.418Z,98202.19
2017-11-26T05:28:49.104Z,98203.68
2017-11-26T05:31:17.385Z,98206.38
2017-11-26T05:33:45.670Z,98210.83
2017-11-26T05:36:13.947Z,98204.56
2017-11-26T05:38:42.227Z,98208.11
2017-11-26T05:41:10.510Z,98204.65
2017-11-26T05:43:38.795Z,98211.53
2017-11-26T05:46:07.083Z,98207.86
2017-11-26T05:48:36.420Z,98218.35
2017-11-26T05:51:04.711Z,98220.38
2017-11-26T05:53:32.995Z,98221.78
2017-11-26T05:56:01.284Z,98221.70
2017-11-26T05:58:29.556Z,98216.14
2017-11-26T06:00:57.836Z,98223.40
2017-11-26T06:03:26.122Z,98222.31
2017-11-26T06:05:54.410Z,98219.43
2017-11-26T06:08:22.708Z,98221.91
2017-11-26T06:10:50.994Z,98228.56
2017-11-26T06:13:19.280Z,98234.98
2017-11-26T06:15:47.562Z,98237.28
2017-11-26T06:18:16.603Z,98235.41
2017-11-26T06:20:44.886Z,98235.75
2017-11-26T06:23:13.166Z,98234.83
2017-11-26T06:25:41.463Z,98234.93
2017-11-26T06:28:10.710Z,98240.60
2017-11-26T06:30:40.229Z,98239.29
2017-11-26T06:33:08.513Z,98244.99
2017-11-26T06:35:36.802Z,98245.63
2017-11-26T06:38:05.071Z,98244.46
2017-11-26T06:40:33.342Z,98242.96
2017-11-26T06:43:01.618Z,98246.23
2017-11-26T06:45:29.890Z,98247.23
2017-11-26T06:47:58.161Z,98247.70
2017-11-26T06:50:26.446Z,98252.92
2017-11-26T06:52:54.716Z,98255.52
2017-11-26T06:55:23.011Z,98256.03
2017-11-26T06:57:51.279Z,98258.50
2017-11-26T07:00:19.570Z,98258.77
2017-11-26T07:02:47.849Z,98260.34
2017-11-26T07:05:16.138Z,98258.66
2017-11-26T07:07:44.424Z,98260.33
2017-11-26T07:10:13.465Z,98273.69
2017-11-26T07:12:41.742Z,98272.10
2017-11-26T07:15:10.026Z,98270.39
2017-11-26T07:17:38.306Z,98275.67
2017-11-26T07:20:07.883Z,98273.13
2017-11-26T07:22:36.183Z,98275.33
2017-11-26T07:25:04.463Z,98290.82
2017-11-26T07:27:32.746Z,98282.06
2017-11-26T07:30:01.033Z,98289.69
2017-11-26T07:32:29.340Z,98289.06
2017-11-26T07:34:57.715Z,98286.41
2017-11-26T07:37:26.003Z,98293.44
2017-11-26T07:39:54.301Z,98295.64
2017-11-26T07:42:22.585Z,98296.77
2017-11-26T07:44:51.650Z,98294.41
2017-11-26T07:47:19.932Z,98300.97
2017-11-26T07:49:48.224Z,98299.44
2017-11-26T07:52:16.522Z,98305.69
2017-11-26T07:54:44.803Z,98301.34
2017-11-26T07:57:13.107Z,98299.66
2017-11-26T07:59:41.432Z,98299.77
2017-11-26T08:02:09.700Z,98301.20
2017-11-26T08:04:37.983Z,98297.23
2017-11-26T08:07:06.263Z,98305.16
2017-11-26T08:09:34.552Z,98314.07
2017-11-26T08:12:02.917Z,98319.13
2017-11-26T08:14:31.197Z,98316.83
2017-11-26T08:16:59.477Z,98316.41
2017-11-26T08:19:27.762Z,98310.09
2017-11-26T08:21:56.046Z,98307.70
2017-11-26T08:24:24.329Z,98309.43
2017-11-26T08:26:52.639Z,98312.94
2017-11-26T08:29:20.927Z,98305.83
2017-11-26T08:31:49.213Z,98316.32
2017-11-26T08:34:17.493Z,98318.52
2017-11-26T08:36:46.491Z,98312.50
2017-11-26T08:39:14.766Z,98314.20
2017-11-26T08:41:43.086Z,98308.64
2017-11-26T08:44:11.374Z,98305.74
2017-11-26T08:46:40.567Z,98307.02
2017-11-26T08:49:08.894Z,98308.47
2017-11-26T08:51:37.178Z,98310.09
2017-11-26T08:54:05.467Z,98311.28
2017-11-26T08:56:33.758Z,98318.56
2017-11-26T08:59:02.043Z,98331.80
2017-11-26T09:01:30.311Z,98335.61
2017-11-26T09:03:58.610Z,98330.66
2017-11-26T09:06:39.623Z,98331.80
2017-11-26T09:09:07.909Z,98341.81
2017-11-26T09:11:36.197Z,98339.03
2017-11-26T09:14:04.501Z,98347.44
2017-11-26T09:16:32.795Z,98356.99
2017-11-26T09:19:01.082Z,98355.31
2017-11-26T09:21:30.137Z,98360.48
2017-11-26T09:23:58.415Z,98354.90
2017-11-26T09:26:26.700Z,98354.20
2017-11-26T09:28:54.987Z,98350.77
2017-11-26T09:31:23.795Z,98350.17
2017-11-26T09:33:53.707Z,98350.51
2017-11-26T09:36:22.002Z,98352.80
2017-11-26T09:38:50.300Z,98360.58
2017-11-26T09:41:18.582Z,98362.72
2017-11-26T09:43:46.864Z,98358.88
2017-11-26T09:46:15.881Z,98352.37
2017-11-26T09:48:44.166Z,98361.86
2017-11-26T09:51:12.446Z,98369.28
2017-11-26T09:53:41.485Z,98359.55
2017-11-26T09:56:09.775Z,98369.05
2017-11-26T09:58:38.075Z,98371.55
2017-11-26T10:01:06.351Z,98373.28
2017-11-26T10:03:34.627Z,98370.66
2017-11-26T10:06:02.922Z,98368.41
2017-11-26T10:08:31.214Z,98372.85
2017-11-26T10:10:59.505Z,98372.84
2017-11-26T10:13:27.794Z,98366.42
2017-11-26T10:15:56.083Z,98369.16
2017-11-26T10:18:24.374Z,98365.61
2017-11-26T10:20:52.661Z,98368.47
2017-11-26T10:23:20.962Z,98364.28
2017-11-26T10:25:49.252Z,98365.20
2017-11-26T10:28:17.534Z,98360.17
2017-11-26T10:30:45.827Z,98365.75
2017-11-26T10:33:14.122Z,98362.55
2017-11-26T10:35:42.409Z,98361.78
2017-11-26T10:38:10.696Z,98362.95
2017-11-26T10:40:38.993Z,98367.02
2017-11-26T10:43:07.282Z,98369.27
2017-11-26T10:45:35.598Z,98370.67
2017-11-26T10:48:03.906Z,98372.16
2017-11-26T10:50:32.195Z,98368.85
2017-11-26T10:53:01.269Z,98364.20
2017-11-26T10:55:29.539Z,98357.55
2017-11-26T10:57:57.837Z,98365.92
2017-11-26T11:00:26.123Z,98359.23
2017-11-26T11:02:55.176Z,98368.95
2017-11-26T11:05:23.454Z,98362.35
2017-11-26T11:07:51.736Z,98368.17
2017-11-26T11:10:20.010Z,98367.17
2017-11-26T11:12:48.724Z,98361.84
2017-11-26T11:15:17.037Z,98366.69
2017-11-26T11:17:45.303Z,98367.69
2017-11-26T11:20:13.596Z,98366.33
2017-11-26T11:22:41.883Z,98362.21
2017-11-26T11:25:10.158Z,98370.92
2017-11-26T11:27:39.231Z,98371.14
2017-11-26T11:30:07.522Z,98376.22
2017-11-26T11:32:35.798Z,98377.48
2017-11-26T11:35:04.114Z,98375.59
2017-11-26T11:37:33.128Z,98375.11
2017-11-26T11:40:01.419Z,98382.98
2017-11-26T11:42:30.470Z,98377.28
2017-11-26T11:44:58.761Z,98375.83
2017-11-26T11:47:27.047Z,98382.80
2017-11-26T11:49:56.103Z,98383.31
2017-11-26T11:52:24.392Z,98381.38
2017-11-26T11:54:53.333Z,98380.07
2017-11-26T11:57:21.600Z,98382.67
2017-11-26T11:59:50.654Z,98383.45
2017-11-26T12:02:19.093Z,98382.27
2017-11-26T12:04:47.412Z,98376.41
2017-11-26T12:07:15.732Z,98381.09
2017-11-26T12:09:45.944Z,98384.03
2017-11-26T12:12:14.986Z,98381.84
2017-11-26T12:14:43.282Z,98373.03
2017-11-26T12:17:11.563Z,98378.50
2017-11-26T12:19:39.853Z,98380.09
2017-11-26T12:22:09.022Z,98377.09
2017-11-26T12:24:37.330Z,98372.98
2017-11-26T12:27:05.676Z,98374.02
2017-11-26T12:29:33.988Z,98381.95
2017-11-26T12:32:02.278Z,98377.46
2017-11-26T12:34:31.426Z,98384.44
2017-11-26T12:36:59.723Z,98384.22
2017-11-26T12:39:28.016Z,98378.31
2017-11-26T12:41:57.154Z,98377.46
2017-11-26T12:44:25.517Z,98386.67
2017-11-26T12:46:54.201Z,98389.73
2017-11-26T12:49:22.705Z,98392.76
2017-11-26T12:51:51.013Z,98388.94
2017-11-26T12:54:19.303Z,98390.72
2017-11-26T12:56:47.613Z,98393.77
2017-11-26T12:59:16.010Z,98390.31
2017-11-26T13:01:44.299Z,98388.54
2017-11-26T13:04:12.684Z,98386.88
2017-11-26T13:06:42.754Z,98386.80
2017-11-26T13:09:12.467Z,98386.13
2017-11-26T13:11:40.814Z,98393.42
2017-11-26T13:14:09.098Z,98392.89
2017-11-26T13:16:37.382Z,98394.20
2017-11-26T13:19:06.482Z,98396.84
2017-11-26T13:21:34.818Z,98379.88
2017-11-26T13:24:03.101Z,98385.20
2017-11-26T13:26:31.402Z,98389.23
2017-11-26T13:28:59.747Z,98391.00
2017-11-26T13:31:28.114Z,98392.51
2017-11-26T13:33:56.399Z,98395.10
2017-11-26T13:36:24.713Z,98390.52
2017-11-26T13:38:53.772Z,98382.14
2017-11-26T13:41:22.095Z,98390.22
2017-11-26T13:43:51.157Z,98386.23
2017-11-26T13:46:19.463Z,98393.47
2017-11-26T13:48:48.507Z,98395.88
2017-11-26T13:51:16.775Z,98395.63
2017-11-26T13:53:45.047Z,98398.45
2017-11-26T13:56:14.153Z,98400.80
2017-11-26T13:58:42.451Z,98398.83
2017-11-26T14:01:12.036Z,98402.86
2017-11-26T14:03:40.315Z,98402.88
2017-11-26T14:06:08.640Z,98405.27
2017-11-26T14:08:39.347Z,98414.67
2017-11-26T14:11:07.627Z,98410.14
2017-11-26T14:13:35.935Z,98406.29
2017-11-26T14:16:05.015Z,98409.82
2017-11-26T14:18:33.327Z,98410.65
2017-11-26T14:21:01.616Z,98407.27
2017-11-26T14:23:29.896Z,98410.50
2017-11-26T14:25:58.200Z,98415.73
2017-11-26T14:28:26.757Z,98418.62
2017-11-26T14:30:55.071Z,98406.77
2017-11-26T14:33:23.362Z,98410.95
2017-11-26T14:35:52.411Z,98413.39
2017-11-26T14:38:20.725Z,98416.45
2017-11-26T14:40:48.996Z,98419.23
2017-11-26T14:43:17.281Z,98427.77
2017-11-26T14:45:45.593Z,98430.23
2017-11-26T14:48:13.915Z,98432.02
2017-11-26T14:50:42.232Z,98434.79
2017-11-26T14:53:10.524Z,98438.42
2017-11-26T14:55:38.840Z,98440.14
2017-11-26T14:58:07.111Z,98436.78
2017-11-26T15:00:35.415Z,98444.80
2017-11-26T15:03:04.527Z,98448.11
2017-11-26T15:05:33.067Z,98440.27
2017-11-26T15:08:01.421Z,98450.84
2017-11-26T15:10:29.723Z,98451.42
2017-11-26T15:12:58.030Z,98455.55
2017-11-26T15:15:26.342Z,98452.45
2017-11-26T15:17:54.692Z,98461.55
2017-11-26T15:20:23.792Z,98457.80
2017-11-26T15:22:52.094Z,98455.38
2017-11-26T15:25:21.146Z,98458.89
2017-11-26T15:27:49.483Z,98463.56
2017-11-26T15:30:17.798Z,98475.22
2017-11-26T15:32:46.866Z,98475.30
2017-11-26T15:35:15.930Z,98471.44
2017-11-26T15:37:44.261Z,98475.38
2017-11-26T15:40:12.597Z,98473.51
2017-11-26T15:42:40.909Z,98475.13
2017-11-26T15:45:09.215Z,98473.53
2017-11-26T15:47:37.542Z,98480.50
2017-11-26T15:50:05.968Z,98478.94
2017-11-26T15:52:34.272Z,98483.08
2017-11-26T15:55:02.566Z,98472.73
2017-11-26T15:57:30.851Z,98474.19
2017-11-26T15:59:59.132Z,98478.22
2017-11-26T16:02:27.419Z,98486.23
2017-11-26T16:04:55.741Z,98480.42
2017-11-26T16:07:24.034Z,98484.70
2017-11-26T16:09:52.335Z,98491.57
2017-11-26T16:12:21.808Z,98487.41
2017-11-26T16:14:50.098Z,98491.51
2017-11-26T16:17:18.572Z,98495.11
2017-11-26T16:19:46.892Z,98500.27
2017-11-26T16:22:15.235Z,98499.66
2017-11-26T16:24:43.548Z,98507.59
2017-11-26T16:27:12.713Z,98509.20
2017-11-26T16:29:41.315Z,98508.77
2017-11-26T16:32:10.510Z,98513.82
2017-11-26T16:34:38.856Z,98506.70
2017-11-26T16:37:07.445Z,98504.64
2017-11-26T16:39:35.824Z,98510.02
2017-11-26T16:42:04.243Z,98515.81
2017-11-26T16:44:32.567Z,98518.79
2017-11-26T16:47:00.880Z,98518.47
2017-11-26T16:49:30.000Z,98527.04
2017-11-26T16:51:58.704Z,98517.30
2017-11-26T16:54:27.487Z,98517.91
2017-11-26T16:56:57.170Z,98522.47
2017-11-26T16:59:25.845Z,98524.92
2017-11-26T17:01:55.300Z,98526.02
2017-11-26T17:04:23.918Z,98522.98
2017-11-26T17:06:53.065Z,98531.09
2017-11-26T17:09:21.795Z,98526.69
2017-11-26T17:11:50.694Z,98534.00
2017-11-26T17:14:19.372Z,98530.25
2017-11-26T17:16:47.921Z,98529.44
2017-11-26T17:19:17.242Z,98535.66
2017-11-26T17:21:47.083Z,98537.77
2017-11-26T17:24:16.689Z,98529.83
2017-11-26T17:26:45.877Z,98530.95
2017-11-26T17:29:14.858Z,98528.89
2017-11-26T17:31:44.038Z,98537.98
2017-11-26T17:34:13.463Z,98531.13
2017-11-26T17:36:43.157Z,98533.55
2017-11-26T17:39:12.778Z,98530.62
2017-11-26T17:41:43.126Z,98534.59
2017-11-26T17:44:13.011Z,98533.61
2017-11-26T17:46:44.016Z,98537.41
2017-11-26T17:49:13.677Z,98539.00
2017-11-26T17:51:43.616Z,98545.17
2017-11-26T17:54:13.738Z,98531.22
2017-11-26T17:56:43.475Z,98550.42
2017-11-26T17:59:12.644Z,98556.30
2017-11-26T18:01:42.885Z,98554.30
2017-11-26T18:04:12.366Z,98557.21
2017-11-26T18:06:44.069Z,98556.28
2017-11-26T18:09:14.528Z,98559.86
2017-11-26T18:11:44.399Z,98549.86
2017-11-26T18:14:14.283Z,98542.36
2017-11-26T18:16:44.112Z,98551.31
2017-11-26T18:19:13.949Z,98548.67
2017-11-26T18:21:44.384Z,98553.52
2017-11-26T18:24:14.152Z,98549.00
2017-11-26T18:26:44.412Z,98553.20
2017-11-26T18:29:14.182Z,98559.35
2017-11-26T18:31:43.862Z,98561.33
2017-11-26T18:34:13.597Z,98565.99
2017-11-26T18:36:44.957Z,98574.34
2017-11-26T18:39:14.743Z,98567.56
2017-11-26T18:41:44.712Z,98566.50
2017-11-26T18:44:16.000Z,98568.95
2017-11-26T18:46:45.902Z,98571.19
2017-11-26T18:49:15.784Z,98572.06
2017-11-26T18:51:45.621Z,98569.41
2017-11-26T18:54:15.522Z,98581.41
2017-11-26T18:56:46.131Z,98581.25
2017-11-26T18:59:15.967Z,98571.01
2017-11-26T19:01:45.843Z,98575.39
2017-11-26T19:04:15.756Z,98576.88
2017-11-26T19:06:45.670Z,98571.33
2017-11-26T19:09:15.459Z,98581.96
2017-11-26T19:11:45.670Z,98576.55
2017-11-26T19:14:15.351Z,98578.24
2017-11-26T19:16:45.923Z,98576.41
2017-11-26T19:19:15.762Z,98573.89
2017-11-26T19:21:45.715Z,98573.97
2017-11-26T19:24:15.694Z,98578.39
2017-11-26T19:26:45.789Z,98570.65
2017-11-26T19:29:15.744Z,98582.97
2017-11-26T19:31:46.398Z,98576.45
2017-11-26T19:34:16.912Z,98581.40
2017-11-26T19:36:46.852Z,98579.92
2017-11-26T19:39:16.869Z,98585.27
2017-11-26T19:41:46.783Z,98593.86
2017-11-26T19:44:17.498Z,98591.94
2017-11-26T19:46:47.639Z,98599.02
2017-11-26T19:49:17.697Z,98596.72
2017-11-26T19:51:47.588Z,98602.73
2017-11-26T19:54:17.687Z,98602.19
2017-11-26T19:56:47.693Z,98605.34
2017-11-26T19:59:20.481Z,98605.19
2017-11-26T20:01:50.509Z,98607.13
2017-11-26T20:04:20.455Z,98614.67
2017-11-26T20:06:50.345Z,98610.64
2017-11-26T20:09:20.511Z,98614.29
2017-11-26T20:11:50.473Z,98610.38
2017-11-26T20:14:20.621Z,98608.13
2017-11-26T20:16:50.693Z,98602.47
2017-11-26T20:19:21.346Z,98607.48
2017-11-26T20:21:51.233Z,98608.69
2017-11-26T20:24:21.640Z,98615.78
2017-11-26T20:26:51.490Z,98615.59
2017-11-26T20:29:21.946Z,98610.70
2017-11-26T20:31:51.897Z,98609.52
2017-11-26T20:34:22.539Z,98618.54
2017-11-26T20:36:53.221Z,98614.70
2017-11-26T20:39:23.109Z,98612.03
2017-11-26T20:41:52.896Z,98612.14
2017-11-26T20:44:22.717Z,98618.52
2017-11-26T20:46:53.479Z,98618.52
2017-11-26T20:49:25.277Z,98612.46
2017-11-26T20:51:55.147Z,98605.67
2017-11-26T20:54:25.861Z,98609.75
2017-11-26T20:56:55.765Z,98611.50
2017-11-26T20:59:25.639Z,98614.92
2017-11-26T21:01:56.153Z,98619.39
2017-11-26T21:04:25.941Z,98616.06
2017-11-26T21:06:56.862Z,98617.49
2017-11-26T21:09:27.655Z,98628.04
2017-11-26T21:11:59.016Z,98625.95
2017-11-26T21:14:28.932Z,98622.95
2017-11-26T21:16:58.859Z,98631.23
2017-11-26T21:19:28.657Z,98640.54
2017-11-26T21:21:58.511Z,98644.42
2017-11-26T21:24:28.432Z,98643.98
2017-11-26T21:26:58.274Z,98637.52
2017-11-26T21:29:28.252Z,98633.47
2017-11-26T21:31:58.122Z,98630.27
2017-11-26T21:34:28.517Z,98634.27
2017-11-26T21:36:58.286Z,98627.78
2017-11-26T21:39:28.963Z,98618.86
2017-11-26T21:41:59.540Z,98622.13
2017-11-26T21:44:29.349Z,98620.08
2017-11-26T21:46:59.056Z,98628.98
2017-11-26T21:49:28.820Z,98620.22
2017-11-26T21:51:58.683Z,98618.70
2017-11-26T21:54:28.457Z,98622.23
2017-11-26T21:56:58.025Z,98619.88
2017-11-26T21:59:28.472Z,98626.77
2017-11-26T22:01:58.208Z,98621.67
2017-11-26T22:04:27.659Z,98621.06
2017-11-26T22:06:57.295Z,98621.88
2017-11-26T22:09:26.374Z,98616.59
2017-11-26T22:11:55.645Z,98615.69
2017-11-26T22:14:24.113Z,98615.00
2017-11-26T22:16:52.414Z,98614.61
2017-11-26T22:19:20.703Z,98620.16
2017-11-26T22:21:48.997Z,98613.27
2017-11-26T22:24:17.290Z,98609.45
2017-11-26T22:26:45.575Z,98614.50
2017-11-26T22:29:13.867Z,98610.59
2017-11-26T22:31:42.150Z,98607.94
2017-11-26T22:34:10.446Z,98608.11
2017-11-26T22:36:38.728Z,98607.53
2017-11-26T22:39:07.015Z,98605.75
2017-11-26T22:41:36.102Z,98610.14
2017-11-26T22:44:04.393Z,98613.80
2017-11-26T22:46:32.682Z,98621.50
2017-11-26T22:49:00.972Z,98612.31
2017-11-26T22:51:29.250Z,98620.14
2017-11-26T22:53:57.537Z,98614.11
2017-11-26T22:56:25.833Z,98602.91
2017-11-26T22:58:54.901Z,98605.13
2017-11-26T23:01:24.190Z,98597.58
2017-11-26T23:03:52.478Z,98594.08
2017-11-26T23:06:20.762Z,98592.48
2017-11-26T23:08:49.049Z,98595.69
2017-11-26T23:11:17.335Z,98600.02
2017-11-26T23:13:46.594Z,98594.95
2017-11-26T23:16:14.879Z,98593.47
2017-11-26T23:18:43.174Z,98600.67
2017-11-26T23:21:11.460Z,98598.13
2017-11-26T23:23:40.514Z,98603.06
2017-11-26T23:26:08.798Z,98610.11
2017-11-26T23:28:37.077Z,98615.20
2017-11-26T23:31:05.382Z,98612.66
2017-11-26T23:33:33.668Z,98611.43
2017-11-26T23:36:02.714Z,98611.33
2017-11-26T23:38:31.002Z,98610.47
2017-11-26T23:40:59.279Z,98604.22
2017-11-26T23:43:28.413Z,98609.44
2017-11-26T23:45:56.697Z,98612.03
2017-11-26T23:48:24.982Z,98610.70
2017-11-26T23:50:53.339Z,98612.61
2017-11-26T23:53:21.594Z,98607.37
2017-11-26T23:55:49.882Z,98610.48
2017-11-26T23:58:18.173Z,98615.10
